Time;durP1;ratioP1;P1;durP2;ratioP2;P2;SDS_P1;SDS_P2;PMS_P1;PMS_P2;Temp;Humidity;BMP_temperature;BMP_pressure;BME280_temperature;BME280_humidity;BME280_pressure;Samples;Min_cycle;Max_cycle;Signal;HPM_P1;HPM_P2
2021/05/20 00:02:15;;;;;;;11.57;2.90;;;;;;;;;;4909225;29;20052;-59
2021/05/20 00:04:42;;;;;;;19.15;3.65;;;;;;;;;;4913326;29;20048;-57
2021/05/20 00:07:09;;;;;;;19.77;4.20;;;;;;;;;;4907830;29;20040;-53
2021/05/20 00:09:37;;;;;;;25.48;4.13;;;;;;;;;;4909572;29;20144;-56
2021/05/20 00:12:04;;;;;;;13.13;3.15;;;;;;;;;;4909666;29;20408;-55
2021/05/20 00:14:31;;;;;;;17.80;3.17;;;;;;;;;;4913108;29;20467;-56
2021/05/20 00:16:57;;;;;;;14.60;3.42;;;;;;;;;;4906501;29;20055;-55
2021/05/20 00:19:24;;;;;;;11.57;2.90;;;;;;;;;;4907440;29;20032;-54
2021/05/20 00:21:51;;;;;;;14.47;3.53;;;;;;;;;;4903329;29;20598;-55
2021/05/20 00:24:19;;;;;;;14.25;3.50;;;;;;;;;;4911210;29;20726;-56
2021/05/20 00:26:45;;;;;;;12.52;3.00;;;;;;;;;;4906682;29;20055;-56
2021/05/20 00:29:12;;;;;;;14.98;3.28;;;;;;;;;;4908161;29;20160;-55
2021/05/20 00:31:39;;;;;;;13.60;3.20;;;;;;;;;;4907191;29;20059;-56
2021/05/20 00:34:06;;;;;;;16.38;3.75;;;;;;;;;;4912951;29;20136;-54
2021/05/20 00:36:33;;;;;;;15.73;3.63;;;;;;;;;;4906598;29;20490;-55
2021/05/20 00:39:01;;;;;;;18.67;3.47;;;;;;;;;;4914094;29;20032;-55
2021/05/20 00:41:28;;;;;;;12.63;3.42;;;;;;;;;;4906137;29;20052;-56
2021/05/20 00:43:55;;;;;;;19.85;3.67;;;;;;;;;;4910260;29;20058;-55
2021/05/20 00:46:22;;;;;;;18.05;4.32;;;;;;;;;;4906456;29;20049;-54
2021/05/20 00:48:48;;;;;;;13.35;3.38;;;;;;;;;;4909881;29;20492;-56
2021/05/20 00:51:15;;;;;;;18.13;4.60;;;;;;;;;;4907200;29;20545;-56
2021/05/20 00:53:42;;;;;;;23.13;4.13;;;;;;;;;;4907377;29;20048;-56
2021/05/20 00:56:10;;;;;;;11.82;3.42;;;;;;;;;;4908650;29;20059;-56
2021/05/20 00:58:37;;;;;;;13.68;3.25;;;;;;;;;;4908325;29;20052;-55
2021/05/20 01:01:05;;;;;;;12.68;3.30;;;;;;;;;;4905349;29;20044;-55
2021/05/20 01:03:32;;;;;;;19.50;3.97;;;;;;;;;;4907675;29;20123;-56
2021/05/20 01:05:58;;;;;;;24.67;4.18;;;;;;;;;;4905158;29;20139;-57
2021/05/20 01:08:27;;;;;;;11.07;3.90;;;;;;;;;;4912555;29;20112;-57
2021/05/20 01:10:53;;;;;;;15.52;3.35;;;;;;;;;;4902354;29;20521;-56
2021/05/20 01:13:23;;;;;;;17.75;3.72;;;;;;;;;;4911128;29;20082;-57
2021/05/20 01:15:50;;;;;;;14.27;3.47;;;;;;;;;;4910846;29;20051;-57
2021/05/20 01:18:17;;;;;;;12.67;3.43;;;;;;;;;;4905860;29;20541;-57
2021/05/20 01:20:44;;;;;;;13.82;3.33;;;;;;;;;;4904867;29;20401;-57
2021/05/20 01:23:12;;;;;;;15.55;4.03;;;;;;;;;;4908144;29;20048;-54
2021/05/20 01:25:41;;;;;;;18.63;3.35;;;;;;;;;;4909883;29;20036;-57
2021/05/20 01:28:12;;;;;;;16.95;3.70;;;;;;;;;;4909893;29;20043;-57
2021/05/20 01:30:40;;;;;;;20.77;3.63;;;;;;;;;;4909986;29;20469;-57
2021/05/20 01:33:07;;;;;;;;;;;;;;;;;;4908027;29;20063;-57
2021/05/20 01:35:34;;;;;;;25.50;4.32;;;;;;;;;;4906982;29;19938;-57
2021/05/20 01:38:19;;;;;;;20.65;4.28;;;;;;;;;;4910050;29;20134;-57
2021/05/20 01:40:52;;;;;;;15.35;3.75;;;;;;;;;;4904588;29;20044;-57
2021/05/20 01:43:21;;;;;;;15.45;3.15;;;;;;;;;;4903747;29;20056;-57
2021/05/20 01:45:57;;;;;;;14.63;4.10;;;;;;;;;;4906334;29;20507;-57
2021/05/20 01:48:26;;;;;;;19.77;4.13;;;;;;;;;;4907337;29;20040;-57
2021/05/20 01:50:52;;;;;;;;;;;;;;;;;;4903803;29;20046;-57
2021/05/20 01:53:19;;;;;;;17.98;3.95;;;;;;;;;;4906387;29;19945;-57
2021/05/20 01:55:49;;;;;;;16.40;4.15;;;;;;;;;;4908584;29;20159;-57
2021/05/20 01:58:16;;;;;;;12.80;3.72;;;;;;;;;;4908187;29;20153;-57
2021/05/20 02:00:42;;;;;;;18.33;4.00;;;;;;;;;;4906318;29;20123;-57
2021/05/20 02:03:10;;;;;;;14.90;3.60;;;;;;;;;;4906033;29;20578;-57
2021/05/20 02:05:36;;;;;;;21.75;4.75;;;;;;;;;;4904068;29;20089;-57
2021/05/20 02:08:04;;;;;;;13.52;3.67;;;;;;;;;;4906518;29;20044;-57
2021/05/20 02:10:31;;;;;;;;;;;;;;;;;;4901705;29;20605;-57
2021/05/20 02:12:58;;;;;;;11.02;3.78;;;;;;;;;;4907172;29;19923;-57
2021/05/20 02:15:24;;;;;;;14.43;3.80;;;;;;;;;;4909599;29;20513;-57
2021/05/20 02:17:53;;;;;;;16.25;3.80;;;;;;;;;;4905327;29;20075;-58
2021/05/20 02:20:20;;;;;;;10.98;4.30;;;;;;;;;;4906865;29;20108;-57
2021/05/20 02:22:48;;;;;;;16.33;4.30;;;;;;;;;;4908470;29;20055;-56
2021/05/20 02:25:16;;;;;;;15.00;3.92;;;;;;;;;;4888741;29;20040;-57
2021/05/20 02:27:43;;;;;;;13.75;3.75;;;;;;;;;;4906252;29;20052;-56
2021/05/20 02:30:14;;;;;;;15.93;4.35;;;;;;;;;;4908101;29;20046;-57
2021/05/20 02:32:41;;;;;;;12.38;3.90;;;;;;;;;;4906573;29;20052;-57
2021/05/20 02:35:08;;;;;;;14.05;3.72;;;;;;;;;;4904358;29;20058;-57
2021/05/20 02:37:35;;;;;;;10.55;4.00;;;;;;;;;;4906046;29;20051;-57
2021/05/20 02:40:04;;;;;;;19.83;4.05;;;;;;;;;;4902181;29;20048;-57
2021/05/20 02:42:31;;;;;;;14.77;3.65;;;;;;;;;;4908403;29;20096;-55
2021/05/20 02:44:57;;;;;;;13.52;3.60;;;;;;;;;;4903315;29;20056;-57
2021/05/20 02:47:24;;;;;;;17.50;3.67;;;;;;;;;;4905274;29;20051;-54
2021/05/20 02:49:51;;;;;;;27.35;4.32;;;;;;;;;;4907175;29;20564;-57
2021/05/20 02:52:17;;;;;;;13.23;3.95;;;;;;;;;;4906025;29;20040;-56
2021/05/20 02:54:46;;;;;;;11.38;3.92;;;;;;;;;;4904883;29;20500;-57
2021/05/20 02:57:13;;;;;;;20.08;3.83;;;;;;;;;;4904499;29;20051;-57
2021/05/20 02:59:40;;;;;;;12.43;4.20;;;;;;;;;;4902735;29;20048;-57
2021/05/20 03:02:07;;;;;;;16.60;3.95;;;;;;;;;;4906388;29;20040;-57
2021/05/20 03:04:34;;;;;;;12.75;3.95;;;;;;;;;;4906110;29;20048;-57
2021/05/20 03:07:01;;;;;;;14.82;4.18;;;;;;;;;;4902351;29;20048;-57
2021/05/20 03:09:28;;;;;;;18.63;3.83;;;;;;;;;;4901419;29;20524;-53
2021/05/20 03:11:56;;;;;;;22.90;4.13;;;;;;;;;;4907071;29;20046;-57
2021/05/20 03:14:23;;;;;;;17.38;4.20;;;;;;;;;;4903480;29;20432;-57
2021/05/20 03:16:50;;;;;;;14.52;3.75;;;;;;;;;;4905687;29;20044;-56
2021/05/20 03:19:16;;;;;;;12.77;3.65;;;;;;;;;;4909292;29;20728;-56
2021/05/20 03:21:43;;;;;;;13.43;3.28;;;;;;;;;;4912628;29;20048;-58
2021/05/20 03:24:12;;;;;;;15.98;4.55;;;;;;;;;;4910107;29;20048;-59
2021/05/20 03:26:38;;;;;;;10.32;3.67;;;;;;;;;;4912119;29;20058;-59
2021/05/20 03:29:05;;;;;;;18.27;4.10;;;;;;;;;;4909879;29;20495;-56
2021/05/20 03:31:32;;;;;;;;;;;;;;;;;;4912708;29;20083;-55
2021/05/20 03:33:59;;;;;;;20.50;3.85;;;;;;;;;;4913196;29;19923;-59
2021/05/20 03:36:26;;;;;;;17.40;4.00;;;;;;;;;;4910317;29;20048;-57
2021/05/20 03:38:53;;;;;;;14.83;3.70;;;;;;;;;;4906041;29;20060;-56
2021/05/20 03:41:20;;;;;;;12.77;3.63;;;;;;;;;;4905902;29;20047;-56
2021/05/20 03:43:46;;;;;;;17.37;4.30;;;;;;;;;;4909341;29;20060;-57
2021/05/20 03:46:27;;;;;;;13.77;4.05;;;;;;;;;;4914002;29;20296;-57
2021/05/20 03:48:54;;;;;;;13.13;3.60;;;;;;;;;;4910698;29;20135;-56
2021/05/20 03:51:21;;;;;;;13.02;4.05;;;;;;;;;;4910639;29;20060;-58
2021/05/20 03:53:48;;;;;;;13.07;4.03;;;;;;;;;;4909370;29;20135;-58
2021/05/20 03:56:17;;;;;;;12.90;3.70;;;;;;;;;;4906560;29;20113;-58
2021/05/20 03:58:44;;;;;;;12.88;4.22;;;;;;;;;;4893786;29;20051;-58
2021/05/20 04:01:11;;;;;;;13.33;3.70;;;;;;;;;;4913725;29;20084;-58
2021/05/20 04:03:37;;;;;;;13.60;3.88;;;;;;;;;;4908443;29;20040;-56
2021/05/20 04:06:06;;;;;;;16.88;4.95;;;;;;;;;;4912700;29;20039;-57
2021/05/20 04:08:32;;;;;;;;;;;;;;;;;;4910779;29;20082;-57
2021/05/20 04:10:59;;;;;;;18.27;3.92;;;;;;;;;;4909658;29;19923;-57
2021/05/20 04:13:27;;;;;;;;;;;;;;;;;;4910061;29;20075;-57
2021/05/20 04:15:54;;;;;;;11.50;3.72;;;;;;;;;;4909295;29;19998;-58
2021/05/20 04:18:21;;;;;;;9.27;3.30;;;;;;;;;;4907636;29;20052;-58
2021/05/20 04:20:49;;;;;;;13.52;3.90;;;;;;;;;;4910173;29;20075;-58
2021/05/20 04:23:15;;;;;;;11.13;4.43;;;;;;;;;;4903216;29;20123;-57
2021/05/20 04:25:43;;;;;;;14.68;3.92;;;;;;;;;;4905534;29;20133;-58
2021/05/20 04:28:09;;;;;;;14.80;3.42;;;;;;;;;;4909218;29;20131;-58
2021/05/20 04:30:36;;;;;;;12.32;3.45;;;;;;;;;;4912608;29;20047;-55
2021/05/20 04:33:03;;;;;;;15.30;3.57;;;;;;;;;;4908720;29;20115;-56
2021/05/20 04:35:32;;;;;;;13.77;3.80;;;;;;;;;;4907422;29;20041;-58
2021/05/20 04:37:59;;;;;;;24.20;4.53;;;;;;;;;;4908146;29;20087;-58
2021/05/20 04:40:29;;;;;;;11.93;3.20;;;;;;;;;;4896228;29;20048;-57
2021/05/20 04:42:56;;;;;;;13.60;3.20;;;;;;;;;;4908028;29;20135;-58
2021/05/20 04:45:22;;;;;;;16.83;3.63;;;;;;;;;;4906580;29;20040;-59
2021/05/20 04:47:49;;;;;;;15.35;4.85;;;;;;;;;;4904170;29;20395;-56
2021/05/20 04:50:16;;;;;;;17.67;3.05;;;;;;;;;;4909147;29;20101;-56
2021/05/20 04:52:43;;;;;;;15.85;3.80;;;;;;;;;;4901744;29;20417;-56
2021/05/20 04:55:11;;;;;;;12.13;3.33;;;;;;;;;;4906273;29;20056;-57
2021/05/20 04:57:38;;;;;;;13.25;3.45;;;;;;;;;;4908797;29;20300;-56
2021/05/20 05:00:06;;;;;;;14.43;3.40;;;;;;;;;;4909123;29;20048;-58
2021/05/20 05:02:32;;;;;;;19.95;3.95;;;;;;;;;;4889472;29;20580;-57
2021/05/20 05:04:59;;;;;;;16.02;3.03;;;;;;;;;;4908373;29;20509;-57
2021/05/20 05:07:26;;;;;;;10.50;3.50;;;;;;;;;;4909531;29;20148;-57
2021/05/20 05:09:53;;;;;;;14.07;3.33;;;;;;;;;;4906224;29;20047;-57
2021/05/20 05:12:20;;;;;;;13.10;3.08;;;;;;;;;;4904122;29;20052;-55
2021/05/20 05:14:47;;;;;;;16.10;3.25;;;;;;;;;;4907977;29;20052;-57
2021/05/20 05:17:13;;;;;;;12.43;4.00;;;;;;;;;;4908005;29;20068;-56
2021/05/20 05:19:41;;;;;;;17.13;3.65;;;;;;;;;;4904531;29;20478;-61
2021/05/20 05:22:07;;;;;;;15.10;3.10;;;;;;;;;;4912187;29;20059;-56
2021/05/20 05:24:34;;;;;;;11.35;2.95;;;;;;;;;;4906539;29;20055;-56
2021/05/20 05:27:01;;;;;;;9.60;2.88;;;;;;;;;;4909076;29;20048;-57
2021/05/20 05:29:28;;;;;;;12.05;2.90;;;;;;;;;;4905379;29;20049;-57
2021/05/20 05:31:55;;;;;;;10.90;2.63;;;;;;;;;;4907787;29;20056;-57
2021/05/20 05:34:22;;;;;;;10.85;3.20;;;;;;;;;;4908979;29;20055;-57
2021/05/20 05:36:49;;;;;;;12.40;3.10;;;;;;;;;;4914228;29;20051;-57
2021/05/20 05:39:16;;;;;;;12.07;2.92;;;;;;;;;;4908426;29;20360;-57
2021/05/20 05:41:44;;;;;;;;;;;;;;;;;;4908873;29;20064;-56
2021/05/20 05:44:13;;;;;;;10.80;2.88;;;;;;;;;;4910729;29;19971;-56
2021/05/20 05:46:40;;;;;;;11.90;2.80;;;;;;;;;;4906276;29;20639;-57
2021/05/20 05:49:14;;;;;;;11.02;2.92;;;;;;;;;;4908146;29;20084;-56
2021/05/20 05:51:44;;;;;;;14.30;3.55;;;;;;;;;;4910937;29;20052;-57
2021/05/20 05:54:12;;;;;;;7.57;2.92;;;;;;;;;;4907013;29;20589;-57
2021/05/20 05:56:39;;;;;;;10.88;2.53;;;;;;;;;;4908151;29;20062;-57
2021/05/20 05:59:14;;;;;;;17.10;2.85;;;;;;;;;;4909422;29;20112;-57
2021/05/20 06:01:41;;;;;;;18.45;3.08;;;;;;;;;;4911135;29;20147;-58
2021/05/20 06:04:08;;;;;;;15.35;2.33;;;;;;;;;;4905375;29;20051;-57
2021/05/20 06:06:35;;;;;;;11.52;2.65;;;;;;;;;;4910307;29;20052;-58
2021/05/20 06:09:05;;;;;;;13.55;3.00;;;;;;;;;;4907501;29;20055;-56
2021/05/20 06:11:35;;;;;;;7.22;2.20;;;;;;;;;;4910587;29;20119;-56
2021/05/20 06:14:06;;;;;;;10.38;2.60;;;;;;;;;;4907610;29;20121;-56
2021/05/20 06:16:35;;;;;;;13.63;3.00;;;;;;;;;;4903762;29;20074;-57
2021/05/20 06:19:02;;;;;;;7.22;2.30;;;;;;;;;;4914104;29;20112;-56
2021/05/20 06:21:29;;;;;;;8.63;2.40;;;;;;;;;;4910763;29;20519;-56
2021/05/20 06:23:57;;;;;;;12.57;2.22;;;;;;;;;;4912521;29;20055;-57
2021/05/20 06:26:27;;;;;;;10.55;2.85;;;;;;;;;;4904085;29;20515;-57
2021/05/20 06:28:54;;;;;;;9.50;2.80;;;;;;;;;;4903198;29;20508;-56
2021/05/20 06:31:20;;;;;;;9.27;2.28;;;;;;;;;;4907241;29;20079;-57
2021/05/20 06:33:48;;;;;;;7.63;2.20;;;;;;;;;;4901768;29;20129;-57
2021/05/20 06:36:15;;;;;;;8.75;2.38;;;;;;;;;;4885054;29;20128;-57
2021/05/20 06:38:42;;;;;;;6.90;2.30;;;;;;;;;;4907399;29;20044;-56
2021/05/20 06:41:09;;;;;;;13.57;1.90;;;;;;;;;;4907999;29;20676;-55
2021/05/20 06:43:37;;;;;;;11.73;2.50;;;;;;;;;;4909035;29;20315;-56
2021/05/20 06:46:07;;;;;;;10.65;2.40;;;;;;;;;;4910105;29;20621;-58
2021/05/20 06:48:34;;;;;;;14.25;2.33;;;;;;;;;;4908692;29;20051;-57
2021/05/20 06:51:02;;;;;;;6.95;1.95;;;;;;;;;;4909861;29;20048;-57
2021/05/20 06:53:31;;;;;;;7.82;2.25;;;;;;;;;;4904801;29;20101;-57
2021/05/20 06:56:02;;;;;;;9.32;2.38;;;;;;;;;;4903238;29;20466;-58
2021/05/20 07:01:15;;;;;;;12.73;2.60;;;;;;;;;;4906923;29;20170;-57
2021/05/20 07:03:43;;;;;;;12.48;2.22;;;;;;;;;;4910830;29;20086;-57
2021/05/20 07:06:11;;;;;;;11.57;2.22;;;;;;;;;;4907906;29;20040;-56
2021/05/20 07:08:38;;;;;;;;;;;;;;;;;;4915048;29;20052;-56
2021/05/20 07:11:05;;;;;;;7.80;2.65;;;;;;;;;;4912107;29;19927;-57
2021/05/20 07:13:32;;;;;;;7.57;2.73;;;;;;;;;;4910123;29;20076;-57
2021/05/20 07:15:59;;;;;;;15.00;2.88;;;;;;;;;;4908416;29;20293;-57
2021/05/20 07:18:28;;;;;;;6.50;1.85;;;;;;;;;;4911463;29;20055;-57
2021/05/20 07:20:54;;;;;;;11.17;2.10;;;;;;;;;;4910454;29;20126;-57
2021/05/20 07:23:21;;;;;;;7.78;2.10;;;;;;;;;;4909440;29;20132;-55
2021/05/20 07:25:49;;;;;;;14.13;2.03;;;;;;;;;;4909598;29;20145;-57
2021/05/20 07:28:16;;;;;;;6.20;2.20;;;;;;;;;;4911805;29;20068;-58
2021/05/20 07:30:42;;;;;;;11.63;2.50;;;;;;;;;;4909745;29;20052;-56
2021/05/20 07:33:11;;;;;;;10.73;2.22;;;;;;;;;;4903385;29;20056;-57
2021/05/20 07:35:38;;;;;;;14.68;2.50;;;;;;;;;;4913746;29;20527;-57
2021/05/20 07:38:04;;;;;;;8.50;2.42;;;;;;;;;;4911589;29;20459;-59
2021/05/20 07:40:32;;;;;;;9.55;1.92;;;;;;;;;;4911991;29;20079;-57
2021/05/20 07:42:59;;;;;;;10.83;2.30;;;;;;;;;;4909524;29;20040;-56
2021/05/20 07:45:26;;;;;;;9.10;2.00;;;;;;;;;;4914236;29;20064;-57
2021/05/20 07:47:52;;;;;;;15.70;2.47;;;;;;;;;;4910554;29;20046;-56
2021/05/20 07:50:19;;;;;;;7.15;2.20;;;;;;;;;;4913025;29;20037;-57
2021/05/20 07:52:46;;;;;;;12.97;2.57;;;;;;;;;;4907550;29;20082;-58
2021/05/20 07:55:13;;;;;;;8.50;2.17;;;;;;;;;;4906855;29;20303;-57
2021/05/20 07:57:40;;;;;;;8.48;1.90;;;;;;;;;;4903707;29;20044;-57
2021/05/20 08:00:08;;;;;;;9.45;2.22;;;;;;;;;;4905500;29;20143;-57
2021/05/20 08:05:21;;;;;;;9.27;2.28;;;;;;;;;;4906334;29;20040;-58
2021/05/20 08:07:55;;;;;;;5.60;2.08;;;;;;;;;;4909307;29;20056;-58
2021/05/20 08:12:49;;;;;;;9.02;2.25;;;;;;;;;;4910859;29;20457;-57
2021/05/20 08:15:15;;;;;;;9.40;2.50;;;;;;;;;;4904808;29;20049;-57
2021/05/20 08:17:42;;;;;;;7.97;2.20;;;;;;;;;;4908775;29;20044;-58
2021/05/20 08:20:09;;;;;;;11.98;2.53;;;;;;;;;;4909399;29;20054;-58
2021/05/20 08:22:37;;;;;;;8.35;2.10;;;;;;;;;;4909394;29;20040;-58
2021/05/20 08:25:05;;;;;;;13.05;2.28;;;;;;;;;;4909921;29;20547;-58
2021/05/20 08:27:33;;;;;;;9.82;2.80;;;;;;;;;;4911626;29;20107;-58
2021/05/20 08:30:00;;;;;;;10.57;2.45;;;;;;;;;;4906185;29;20055;-58
2021/05/20 08:32:27;;;;;;;15.00;3.13;;;;;;;;;;4906115;29;20463;-57
2021/05/20 08:34:54;;;;;;;9.30;2.33;;;;;;;;;;4907920;29;20048;-57
2021/05/20 08:37:21;;;;;;;10.87;2.20;;;;;;;;;;4911410;29;20052;-58
2021/05/20 08:39:49;;;;;;;8.75;2.28;;;;;;;;;;4905350;29;20045;-58
2021/05/20 08:42:16;;;;;;;10.03;2.30;;;;;;;;;;4899602;29;20040;-58
2021/05/20 08:44:44;;;;;;;10.90;2.20;;;;;;;;;;4905010;29;20292;-57
2021/05/20 08:47:11;;;;;;;10.27;2.13;;;;;;;;;;4907489;29;20044;-57
2021/05/20 08:49:39;;;;;;;11.57;2.83;;;;;;;;;;4908005;29;20077;-57
2021/05/20 08:52:05;;;;;;;11.15;2.85;;;;;;;;;;4909560;29;20052;-58
2021/05/20 08:54:45;;;;;;;12.05;2.40;;;;;;;;;;4912023;29;20048;-57
2021/05/20 08:57:12;;;;;;;7.60;2.05;;;;;;;;;;4908331;29;20051;-58
2021/05/20 08:59:39;;;;;;;10.77;2.40;;;;;;;;;;4907973;29;20101;-57
2021/05/20 09:02:06;;;;;;;10.07;2.20;;;;;;;;;;4910674;29;20048;-57
2021/05/20 09:04:33;;;;;;;9.85;2.67;;;;;;;;;;4909823;29;20480;-57
2021/05/20 09:07:05;;;;;;;10.98;2.55;;;;;;;;;;4906966;29;20043;-57
2021/05/20 09:09:38;;;;;;;11.80;2.50;;;;;;;;;;4906637;29;20082;-58
2021/05/20 09:12:05;;;;;;;10.93;2.53;;;;;;;;;;4905675;29;20041;-59
2021/05/20 09:14:32;;;;;;;13.70;2.60;;;;;;;;;;4906037;29;20131;-58
2021/05/20 09:17:18;;;;;;;13.30;2.73;;;;;;;;;;4908061;29;20112;-57
2021/05/20 09:19:58;;;;;;;6.03;2.15;;;;;;;;;;4908964;29;20873;-58
2021/05/20 09:22:24;;;;;;;12.75;2.50;;;;;;;;;;4910768;29;20093;-58
2021/05/20 09:24:56;;;;;;;14.73;2.60;;;;;;;;;;4896382;29;20143;-58
2021/05/20 09:27:27;;;;;;;10.95;2.38;;;;;;;;;;4909970;29;20529;-58
2021/05/20 09:30:16;;;;;;;12.13;2.35;;;;;;;;;;4908226;29;20063;-58
2021/05/20 09:32:49;;;;;;;10.50;2.50;;;;;;;;;;4914382;29;20524;-58
2021/05/20 09:35:16;;;;;;;13.20;2.60;;;;;;;;;;4907908;29;20371;-59
2021/05/20 09:37:44;;;;;;;12.18;2.90;;;;;;;;;;4906843;29;20229;-58
2021/05/20 09:40:12;;;;;;;9.75;2.30;;;;;;;;;;4905808;29;20056;-58
2021/05/20 09:42:38;;;;;;;11.02;2.75;;;;;;;;;;4910850;29;20056;-57
2021/05/20 09:45:09;;;;;;;12.97;2.47;;;;;;;;;;4911900;29;20449;-58
2021/05/20 09:47:36;;;;;;;5.88;2.20;;;;;;;;;;4910470;29;20103;-58
2021/05/20 09:50:11;;;;;;;13.07;2.30;;;;;;;;;;4903789;29;20048;-58
2021/05/20 09:52:38;;;;;;;14.00;2.70;;;;;;;;;;4904034;29;20124;-58
2021/05/20 09:55:25;;;;;;;10.32;2.22;;;;;;;;;;4903728;29;20076;-58
2021/05/20 09:57:55;;;;;;;8.70;2.08;;;;;;;;;;4892056;29;20049;-58
2021/05/20 10:00:24;;;;;;;6.03;2.40;;;;;;;;;;4904800;29;20132;-58
2021/05/20 10:03:05;;;;;;;6.60;2.15;;;;;;;;;;4893607;29;20104;-58
2021/05/20 10:05:36;;;;;;;6.47;1.80;;;;;;;;;;4907092;29;20063;-57
2021/05/20 10:08:07;;;;;;;5.72;1.90;;;;;;;;;;4907086;29;20112;-57
2021/05/20 10:10:36;;;;;;;8.48;2.72;;;;;;;;;;4907905;29;20055;-58
2021/05/20 10:13:04;;;;;;;9.90;2.08;;;;;;;;;;4908895;29;20055;-58
2021/05/20 10:15:31;;;;;;;;;;;;;;;;;;4906326;29;20064;-58
2021/05/20 10:18:02;;;;;;;10.20;2.50;;;;;;;;;;4882455;29;19930;-57
2021/05/20 10:20:30;;;;;;;7.78;2.28;;;;;;;;;;4905021;29;20053;-58
2021/05/20 10:22:59;;;;;;;7.03;2.08;;;;;;;;;;4904564;29;20100;-58
2021/05/20 10:25:27;;;;;;;8.65;2.70;;;;;;;;;;4908159;29;20044;-58
2021/05/20 10:27:54;;;;;;;11.00;3.00;;;;;;;;;;4903501;29;20136;-59
2021/05/20 10:30:23;;;;;;;10.27;2.38;;;;;;;;;;4905245;29;20729;-58
2021/05/20 10:32:53;;;;;;;9.25;2.58;;;;;;;;;;4903625;29;20147;-58
2021/05/20 10:35:20;;;;;;;14.18;2.38;;;;;;;;;;4907716;29;20051;-58
2021/05/20 10:37:54;;;;;;;10.07;2.83;;;;;;;;;;4902456;29;20127;-58
2021/05/20 10:40:25;;;;;;;7.13;2.30;;;;;;;;;;4909198;29;20199;-58
2021/05/20 10:43:02;;;;;;;16.25;2.30;;;;;;;;;;4905862;29;20041;-58
2021/05/20 10:45:29;;;;;;;8.88;2.10;;;;;;;;;;4907683;29;20624;-58
2021/05/20 10:48:05;;;;;;;6.55;2.08;;;;;;;;;;4902623;29;20052;-58
2021/05/20 10:50:53;;;;;;;9.48;2.40;;;;;;;;;;4909682;29;20056;-59
2021/05/20 10:53:39;;;;;;;12.80;2.90;;;;;;;;;;4901994;29;20050;-58
2021/05/20 10:56:08;;;;;;;12.45;2.38;;;;;;;;;;4905363;29;20112;-58
2021/05/20 10:58:35;;;;;;;;;;;;;;;;;;4909932;29;20051;-58
2021/05/20 11:01:03;;;;;;;8.35;2.60;;;;;;;;;;4909117;29;19962;-58
2021/05/20 11:03:46;;;;;;;8.10;2.47;;;;;;;;;;4907259;29;20389;-58
2021/05/20 11:06:13;;;;;;;9.10;2.28;;;;;;;;;;4906303;29;20115;-58
2021/05/20 11:08:46;;;;;;;13.73;2.83;;;;;;;;;;4901282;29;20044;-58
2021/05/20 11:11:23;;;;;;;8.70;2.05;;;;;;;;;;4906685;29;20463;-59
2021/05/20 11:13:50;;;;;;;10.90;2.13;;;;;;;;;;4904432;29;20413;-58
2021/05/20 11:16:18;;;;;;;11.63;2.47;;;;;;;;;;4909336;29;20079;-58
2021/05/20 11:18:47;;;;;;;10.98;2.25;;;;;;;;;;4902794;29;20056;-58
2021/05/20 11:21:14;;;;;;;8.43;2.30;;;;;;;;;;4903338;29;20131;-59
2021/05/20 11:23:41;;;;;;;7.88;2.08;;;;;;;;;;4904568;29;20068;-59
2021/05/20 11:26:12;;;;;;;9.25;2.28;;;;;;;;;;4905760;29;20116;-58
2021/05/20 11:28:40;;;;;;;6.78;2.08;;;;;;;;;;4905189;29;20080;-59
2021/05/20 11:31:08;;;;;;;6.95;2.30;;;;;;;;;;4904106;29;20429;-58
2021/05/20 11:33:44;;;;;;;8.82;2.40;;;;;;;;;;4903820;29;20525;-59
2021/05/20 11:36:14;;;;;;;13.18;2.47;;;;;;;;;;4907993;29;20168;-59
2021/05/20 11:38:55;;;;;;;9.27;2.03;;;;;;;;;;4912744;29;20080;-58
2021/05/20 11:41:23;;;;;;;5.18;2.08;;;;;;;;;;4905701;29;20604;-58
2021/05/20 11:44:19;;;;;;;5.78;2.20;;;;;;;;;;4906649;29;20123;-58
2021/05/20 11:47:02;;;;;;;9.13;2.20;;;;;;;;;;4892218;29;20067;-58
2021/05/20 11:49:30;;;;;;;9.10;2.10;;;;;;;;;;4890277;29;20529;-58
2021/05/20 11:52:09;;;;;;;9.48;2.50;;;;;;;;;;4906898;29;20068;-58
2021/05/20 11:54:41;;;;;;;12.00;2.70;;;;;;;;;;4907982;29;20579;-59
2021/05/20 11:57:13;;;;;;;7.50;2.25;;;;;;;;;;4910408;29;20048;-57
2021/05/20 11:59:44;;;;;;;6.72;2.38;;;;;;;;;;4907091;29;20514;-59
2021/05/20 12:02:12;;;;;;;7.35;2.40;;;;;;;;;;4905653;29;20040;-58
2021/05/20 12:04:39;;;;;;;9.27;2.78;;;;;;;;;;4907519;29;20055;-58
2021/05/20 12:07:06;;;;;;;8.38;2.33;;;;;;;;;;4909305;29;20048;-58
2021/05/20 12:09:33;;;;;;;7.00;2.35;;;;;;;;;;4908129;29;20539;-58
2021/05/20 12:12:08;;;;;;;4.82;1.80;;;;;;;;;;4906507;29;20052;-58
2021/05/20 12:14:35;;;;;;;8.95;2.25;;;;;;;;;;4910449;29;20044;-58
2021/05/20 12:17:10;;;;;;;10.20;2.10;;;;;;;;;;4910438;29;20075;-58
2021/05/20 12:19:38;;;;;;;5.32;2.10;;;;;;;;;;4911134;29;20044;-58
2021/05/20 12:22:06;;;;;;;6.18;2.30;;;;;;;;;;4906749;29;20473;-58
2021/05/20 12:24:34;;;;;;;7.15;2.50;;;;;;;;;;4912344;29;20059;-57
2021/05/20 12:27:06;;;;;;;4.60;1.95;;;;;;;;;;4910189;29;20517;-58
2021/05/20 12:29:33;;;;;;;10.00;2.55;;;;;;;;;;4909135;29;20044;-58
2021/05/20 12:32:24;;;;;;;8.20;2.40;;;;;;;;;;4906670;29;20115;-58
2021/05/20 12:35:08;;;;;;;9.90;2.53;;;;;;;;;;4908765;29;20430;-59
2021/05/20 12:37:41;;;;;;;7.63;2.40;;;;;;;;;;4904325;29;20056;-58
2021/05/20 12:40:09;;;;;;;9.75;2.35;;;;;;;;;;4907313;29;20509;-58
2021/05/20 12:42:35;;;;;;;10.38;2.90;;;;;;;;;;4908806;29;20636;-58
2021/05/20 12:45:03;;;;;;;9.03;2.60;;;;;;;;;;4903623;29;20104;-58
2021/05/20 12:47:29;;;;;;;10.98;2.28;;;;;;;;;;4914451;29;20048;-57
2021/05/20 12:49:56;;;;;;;7.13;2.40;;;;;;;;;;4913869;29;20048;-58
2021/05/20 12:52:23;;;;;;;9.93;2.50;;;;;;;;;;4911183;29;20399;-60
2021/05/20 12:55:05;;;;;;;10.40;2.53;;;;;;;;;;4910833;29;20059;-58
2021/05/20 12:57:52;;;;;;;9.18;2.30;;;;;;;;;;4903816;29;20485;-58
2021/05/20 13:00:19;;;;;;;6.60;1.88;;;;;;;;;;4906710;29;20040;-58
2021/05/20 13:02:56;;;;;;;12.35;2.38;;;;;;;;;;4906255;29;20078;-57
2021/05/20 13:05:24;;;;;;;10.85;2.75;;;;;;;;;;4902927;29;20048;-58
2021/05/20 13:07:50;;;;;;;9.23;2.65;;;;;;;;;;4905456;29;20766;-57
2021/05/20 13:10:30;;;;;;;9.33;2.40;;;;;;;;;;4905500;29;20088;-58
2021/05/20 13:12:57;;;;;;;8.23;2.22;;;;;;;;;;4891034;29;22243;-57
2021/05/20 13:15:24;;;;;;;10.50;2.55;;;;;;;;;;4913178;29;20139;-58
2021/05/20 13:18:23;;;;;;;12.20;2.28;;;;;;;;;;4907463;29;20048;-58
2021/05/20 13:23:22;;;;;;;9.68;2.20;;;;;;;;;;4907338;29;20052;-58
2021/05/20 13:25:59;;;;;;;7.23;2.67;;;;;;;;;;4909882;29;20495;-58
2021/05/20 13:28:27;;;;;;;9.95;2.63;;;;;;;;;;4906924;29;20049;-58
2021/05/20 13:30:56;;;;;;;9.05;2.60;;;;;;;;;;4903879;29;20560;-57
2021/05/20 13:33:26;;;;;;;6.18;2.53;;;;;;;;;;4906805;29;20067;-59
2021/05/20 13:35:53;;;;;;;12.05;3.10;;;;;;;;;;4908378;29;20123;-58
2021/05/20 13:38:20;;;;;;;6.82;2.67;;;;;;;;;;4904938;29;20048;-57
2021/05/20 13:40:48;;;;;;;15.52;3.42;;;;;;;;;;4900007;29;20050;-57
2021/05/20 13:43:15;;;;;;;10.10;2.90;;;;;;;;;;4908363;29;20491;-58
2021/05/20 13:45:42;;;;;;;11.85;3.00;;;;;;;;;;4907813;29;20052;-57
2021/05/20 13:48:09;;;;;;;8.73;2.88;;;;;;;;;;4910891;29;20107;-58
2021/05/20 13:50:36;;;;;;;10.65;3.15;;;;;;;;;;4909631;29;20044;-57
2021/05/20 13:53:03;;;;;;;13.35;3.17;;;;;;;;;;4904357;29;20092;-58
2021/05/20 13:55:30;;;;;;;10.55;3.13;;;;;;;;;;4908514;29;20040;-57
2021/05/20 13:57:57;;;;;;;8.40;3.25;;;;;;;;;;4903888;29;20466;-57
2021/05/20 14:00:34;;;;;;;8.85;3.03;;;;;;;;;;4906323;29;20512;-57
2021/05/20 14:03:03;;;;;;;14.18;3.33;;;;;;;;;;4909304;29;20056;-58
2021/05/20 14:05:31;;;;;;;24.50;4.28;;;;;;;;;;4906336;29;20151;-57
2021/05/20 14:07:58;;;;;;;17.58;3.65;;;;;;;;;;4903007;29;20409;-56
2021/05/20 14:10:27;;;;;;;12.43;3.60;;;;;;;;;;4908218;29;20123;-57
2021/05/20 14:12:55;;;;;;;9.13;2.88;;;;;;;;;;4912127;29;20868;-57
2021/05/20 14:15:21;;;;;;;15.05;3.25;;;;;;;;;;4905350;29;20056;-57
2021/05/20 14:17:49;;;;;;;15.65;3.70;;;;;;;;;;4905312;29;20401;-57
2021/05/20 14:20:18;;;;;;;13.38;3.55;;;;;;;;;;4909122;29;20135;-57
2021/05/20 14:22:46;;;;;;;21.60;4.10;;;;;;;;;;4907907;29;20152;-56
2021/05/20 14:25:14;;;;;;;17.88;3.55;;;;;;;;;;4909969;29;20050;-57
2021/05/20 14:27:42;;;;;;;22.60;3.70;;;;;;;;;;4908915;29;20058;-58
2021/05/20 14:30:09;;;;;;;14.77;3.88;;;;;;;;;;4889663;29;20047;-57
2021/05/20 14:32:36;;;;;;;12.23;2.92;;;;;;;;;;4907427;29;20175;-57
2021/05/20 14:35:03;;;;;;;23.93;4.30;;;;;;;;;;4910157;29;20042;-56
2021/05/20 14:37:32;;;;;;;13.90;3.78;;;;;;;;;;4906541;29;20052;-57
2021/05/20 14:40:03;;;;;;;16.67;4.13;;;;;;;;;;4903041;29;20068;-56
2021/05/20 14:42:30;;;;;;;16.35;3.33;;;;;;;;;;4907736;29;20488;-57
2021/05/20 14:44:57;;;;;;;12.10;3.60;;;;;;;;;;4910919;29;20505;-57
2021/05/20 14:47:26;;;;;;;17.77;2.95;;;;;;;;;;4902195;29;20051;-56
2021/05/20 14:49:56;;;;;;;17.42;3.38;;;;;;;;;;4905953;29;20047;-56
2021/05/20 14:52:30;;;;;;;17.67;3.25;;;;;;;;;;4888030;29;20087;-57
2021/05/20 14:55:07;;;;;;;12.68;2.92;;;;;;;;;;4907334;29;20075;-57
2021/05/20 15:08:41;;;;;;;19.13;3.88;;;;;;;;;;4903484;29;20062;-57